Historyczne dane pomiarowe

Dodano dane terminowe – wersja testowa.

Dane z okresu 1951-2018

Wersja bazy: 1.27 [2018-11-28, lista zmian], aktualizacja planowana na 2018-12-07

Dane meteo z obszaru Polski uzyskane na podstawie danych udostępnionych przez Instytut Meteorologii i Gospodarki Wodnej – Państwowy Instytut Badawczy.

 

Wybierz Datę:    

       

TemperaturaWilgotnośćWiatrCiśnienieOpadyŚniegCzas trwania zjawisk
 Stacja t tx tn tng RH VA  wxwx mslp ppp RRR   cm mm wxwxwxwxwxwxwx
1960-11-08 5.4 6.5 4.7 2.1 94.3- 8.0 5.0---- 1.7------------
1960-11-09 4.9 6.5 1.6 -1.9 91.0- 6.0 0.7---- 1.1------------
1960-11-10 6.4 9.9 1.5 -1.5 86.0- 6.7 1.0---- 0.4------------
1960-11-11 7.2 7.7 5.5 2.6 99.5- 8.0 0.0---- 1.0------------
1960-11-12 8.2 9.9 5.9 4.3 95.8- 7.0 1.0---- 0.0------------
1960-11-13 11.1 13.8 6.2 7.9 75.8- 4.7 1.0---- 2.1------------
1960-11-14 7.5 12.2 6.8 5.7 97.5- 8.0 2.0---- 13.2------------
1960-11-15 5.9 7.0 5.7 1.6 98.0- 8.0 2.3---- 1.4------------
1960-11-16 6.3 7.4 5.7 2.0 96.5- 8.0 2.0---- 1.0------------
1960-11-17 5.3 6.3 4.6 1.9 98.8- 8.0 3.0---- 2.5------------
1960-11-18 4.6 5.8 2.6 3.5 88.5- 6.7 2.0---- 0.0------------
1960-11-19 6.1 9.2 2.7 0.1 74.0- 3.0 2.0---- 0.0------------
1960-11-20 3.9 5.6 2.6 3.3 91.5- 8.0 4.3---- 3.0------------
1960-11-21 1.9 4.7 0.1 0.7 78.3- 4.7 3.3---- 0.0------------
1960-11-22 -0.1 3.0 -3.9 -8.4 87.8- 1.7 2.3---- 0.0------------
1960-11-23 0.5 1.4 -0.2 1.9 95.3- 8.0 4.0---- 0.0------------
1960-11-24 0.7 2.6 -0.3 -0.3 94.8- 8.0 2.0---- 0.0------------
1960-11-25 3.9 5.7 -0.2 -0.3 91.8- 5.7 1.0---- 0.0------------
1960-11-26 7.5 9.1 1.2 -3.1 74.3- 4.3 4.7---- 0.0------------
1960-11-27 8.3 10.1 6.8 3.6 74.3- 6.3 3.3---- 0.6------------
1960-11-28 6.9 10.1 4.8 5.6 85.5- 7.3 4.3---- 3.0------------
1960-11-29 2.2 4.9 1.2 1.8 94.0- 7.7 0.3---- 4.0------------
1960-11-30 3.9 5.3 2.1 3.5 81.8- 7.7 6.3---- 3.1------------
1960-12-01 6.6 8.9 3.3 2.8 75.5- 2.7 5.3---- 0.0------------
1960-12-02 8.6 13.4 5.8 7.9 56.5- 0.0 4.0---- 0.0------------
1960-12-03 3.9 8.4 -0.9 -4.1 76.5- 3.3 1.3---- 0.0------------
1960-12-04 9.2 9.9 3.3 2.4 54.8- 6.7 8.0---- 0.0------------
1960-12-05 9.7 12.6 6.0 6.9 66.3- 5.3 3.3---- 0.0------------
1960-12-06 11.3 13.5 7.3 6.5 63.5- 5.7 5.0---- 0.0------------
1960-12-07 13.5 16.0 8.2 8.1 44.0- 6.7 4.3---- 0.0------------
2786.4 ms

 

Źródłem pochodzenia danych jest Instytut Meteorologii i Gospodarki Wodnej – Państwowy Instytut Badawczy. Dane Instytutu Meteorologii i Gospodarki Wodnej – Państwowego Instytutu Badawczego zostały przetworzone.

Dane źródłowe można odnaleźć na stronie https://dane.imgw.pl